createdAt,value
2022-12-28T00:00:26.857Z,65.03
2022-12-28T00:03:32.676Z,65.33
2022-12-28T00:06:37.269Z,64.70
2022-12-28T00:09:41.743Z,65.03
2022-12-28T00:12:46.277Z,64.85
2022-12-28T00:15:50.769Z,63.72
2022-12-28T00:18:56.499Z,63.99
2022-12-28T00:22:00.597Z,64.69
2022-12-28T00:25:05.347Z,63.32
2022-12-28T00:28:09.784Z,63.73
2022-12-28T00:31:15.239Z,65.05
2022-12-28T00:34:19.723Z,63.17
2022-12-28T00:37:24.415Z,62.64
2022-12-28T00:40:29.166Z,63.10
2022-12-28T00:43:34.248Z,63.03
2022-12-28T00:46:38.841Z,62.12
2022-12-28T00:49:43.320Z,63.28
2022-12-28T00:52:47.722Z,61.79
2022-12-28T00:55:52.333Z,61.78
2022-12-28T00:59:00.981Z,62.39
2022-12-28T01:02:05.568Z,62.63
2022-12-28T01:05:10.745Z,61.78
2022-12-28T01:08:15.373Z,64.46
2022-12-28T01:11:37.835Z,63.00
2022-12-28T01:14:42.489Z,63.42
2022-12-28T01:17:46.884Z,63.06
2022-12-28T01:20:51.517Z,61.67
2022-12-28T01:23:58.848Z,61.23
2022-12-28T01:27:03.221Z,60.35
2022-12-28T01:30:09.198Z,58.85
2022-12-28T01:33:15.261Z,58.85
2022-12-28T01:36:25.427Z,59.03
2022-12-28T01:39:30.461Z,57.80
2022-12-28T01:42:34.940Z,57.39
2022-12-28T01:45:40.113Z,58.50
2022-12-28T01:49:03.506Z,58.15
2022-12-28T01:52:20.652Z,57.76
2022-12-28T01:55:32.651Z,57.93
2022-12-28T01:58:37.781Z,57.64
2022-12-28T02:01:42.383Z,56.66
2022-12-28T02:04:48.178Z,56.87
2022-12-28T02:08:15.686Z,55.82
2022-12-28T02:11:21.289Z,54.89
2022-12-28T02:14:26.037Z,56.18
2022-12-28T02:17:30.552Z,55.07
2022-12-28T02:20:52.927Z,55.41
2022-12-28T02:24:23.282Z,59.25
2022-12-28T02:27:53.990Z,59.53
2022-12-28T02:31:14.052Z,61.20
2022-12-28T02:34:33.986Z,57.30
2022-12-28T02:37:54.163Z,58.69
2022-12-28T02:41:10.580Z,58.03
2022-12-28T02:44:35.843Z,57.40
2022-12-28T02:48:02.880Z,58.30
2022-12-28T02:51:45.287Z,53.28
2022-12-28T02:55:22.550Z,57.41
2022-12-28T02:58:30.588Z,58.48
2022-12-28T03:01:57.952Z,59.75
2022-12-28T03:05:43.121Z,60.23
2022-12-28T03:09:27.636Z,58.91
2022-12-28T03:12:44.840Z,60.63
2022-12-28T03:15:50.743Z,59.26
2022-12-28T03:19:25.062Z,59.29
2022-12-28T03:22:50.964Z,58.49
2022-12-28T03:26:15.900Z,59.28
2022-12-28T03:29:45.773Z,60.61
2022-12-28T03:32:51.954Z,59.17
2022-12-28T03:36:05.212Z,56.97
2022-12-28T03:39:34.340Z,55.26
2022-12-28T03:43:11.074Z,55.65
2022-12-28T03:46:24.267Z,53.71
2022-12-28T03:49:29.930Z,53.81
2022-12-28T03:52:35.070Z,54.12
2022-12-28T03:55:41.402Z,53.90
2022-12-28T03:58:46.500Z,52.42
2022-12-28T04:01:52.790Z,52.35
2022-12-28T04:04:57.506Z,52.34
2022-12-28T04:08:02.818Z,52.26
2022-12-28T04:11:07.612Z,52.02
2022-12-28T04:14:12.177Z,51.82
2022-12-28T04:17:20.494Z,51.41
2022-12-28T04:20:25.345Z,51.56
2022-12-28T04:23:31.429Z,51.82
2022-12-28T04:27:02.839Z,52.31
2022-12-28T04:30:09.796Z,52.81
2022-12-28T04:33:14.110Z,55.61
2022-12-28T04:36:22.022Z,55.24
2022-12-28T04:39:27.700Z,55.00
2022-12-28T04:42:52.167Z,53.51
2022-12-28T04:46:02.649Z,53.66
2022-12-28T04:49:06.888Z,53.85
2022-12-28T04:52:11.293Z,53.46
2022-12-28T04:55:32.945Z,53.04
2022-12-28T04:58:38.564Z,53.31
2022-12-28T05:01:43.022Z,54.96
2022-12-28T05:04:47.336Z,54.59
2022-12-28T05:07:51.744Z,53.62
2022-12-28T05:10:56.158Z,55.10
2022-12-28T05:14:00.563Z,54.23
2022-12-28T05:17:04.992Z,55.30
2022-12-28T05:20:09.986Z,54.91
2022-12-28T05:23:14.361Z,55.34
2022-12-28T05:26:21.266Z,55.33
2022-12-28T05:29:25.658Z,55.63
2022-12-28T05:32:30.254Z,55.21
2022-12-28T05:35:36.590Z,55.34
2022-12-28T05:38:41.668Z,54.94
2022-12-28T05:41:46.001Z,55.46
2022-12-28T05:44:50.455Z,56.95
2022-12-28T05:47:56.396Z,56.45
2022-12-28T05:51:21.869Z,56.33
2022-12-28T05:54:26.345Z,57.11
2022-12-28T05:57:30.757Z,57.82
2022-12-28T06:00:35.291Z,58.19
2022-12-28T06:03:40.535Z,57.80
2022-12-28T06:06:45.975Z,59.19
2022-12-28T06:09:50.602Z,59.28
2022-12-28T06:12:55.155Z,58.75
2022-12-28T06:15:59.836Z,59.83
2022-12-28T06:19:12.791Z,59.63
2022-12-28T06:22:17.269Z,59.20
2022-12-28T06:25:21.747Z,60.08
2022-12-28T06:28:26.268Z,60.55
2022-12-28T06:31:33.520Z,60.76
2022-12-28T06:34:38.187Z,61.33
2022-12-28T06:37:42.709Z,62.53
2022-12-28T06:41:12.159Z,61.12
2022-12-28T06:44:14.615Z,60.72
2022-12-28T06:47:19.082Z,62.15
2022-12-28T06:50:23.726Z,62.04
2022-12-28T06:53:34.324Z,60.60
2022-12-28T06:56:39.642Z,60.62
2022-12-28T06:59:44.167Z,61.38
2022-12-28T07:02:48.953Z,61.69
2022-12-28T07:05:53.476Z,63.54
2022-12-28T07:09:06.751Z,65.18
2022-12-28T07:12:11.428Z,67.01
2022-12-28T07:15:16.039Z,66.14
2022-12-28T07:18:20.574Z,63.31
2022-12-28T07:21:30.647Z,63.39
2022-12-28T07:24:34.955Z,63.74
2022-12-28T07:27:39.422Z,64.55
2022-12-28T07:30:43.980Z,64.94
2022-12-28T07:33:49.616Z,63.90
2022-12-28T07:36:54.092Z,63.26
2022-12-28T07:39:58.803Z,63.29
2022-12-28T07:43:03.219Z,63.73
2022-12-28T07:46:11.483Z,63.30
2022-12-28T07:49:15.817Z,62.46
2022-12-28T07:52:20.666Z,64.04
2022-12-28T07:55:25.718Z,64.11
2022-12-28T07:58:30.036Z,64.48
2022-12-28T08:01:37.060Z,65.16
2022-12-28T08:04:41.835Z,64.44
2022-12-28T08:07:46.589Z,63.92
2022-12-28T08:10:51.103Z,63.68
2022-12-28T08:13:57.852Z,65.76
2022-12-28T08:17:02.169Z,64.68
2022-12-28T08:20:07.113Z,65.20
2022-12-28T08:23:11.665Z,65.87
2022-12-28T08:26:24.554Z,66.77
2022-12-28T08:29:29.136Z,66.91
2022-12-28T08:32:33.485Z,65.29
2022-12-28T08:35:37.901Z,65.22
2022-12-28T08:38:43.970Z,66.80
2022-12-28T08:41:48.337Z,67.62
2022-12-28T08:44:52.974Z,68.13
2022-12-28T08:47:57.459Z,66.77
2022-12-28T08:51:11.843Z,65.34
2022-12-28T08:54:16.416Z,67.77
2022-12-28T08:57:20.801Z,66.73
2022-12-28T09:00:25.378Z,65.02
2022-12-28T09:03:30.095Z,64.51
2022-12-28T09:06:37.722Z,65.02
2022-12-28T09:09:42.151Z,64.97
2022-12-28T09:12:46.445Z,65.80
2022-12-28T09:16:12.660Z,66.54
2022-12-28T09:19:17.675Z,66.61
2022-12-28T09:22:22.993Z,67.47
2022-12-28T09:25:27.497Z,65.79
2022-12-28T09:28:31.741Z,66.12
2022-12-28T09:31:38.071Z,66.05
2022-12-28T09:34:42.628Z,64.77
2022-12-28T09:37:47.165Z,64.28
2022-12-28T09:40:51.628Z,64.76
2022-12-28T09:44:18.720Z,66.00
2022-12-28T09:47:39.633Z,66.51
2022-12-28T09:50:45.386Z,66.15
2022-12-28T09:53:50.205Z,66.52
2022-12-28T09:56:55.444Z,67.78
2022-12-28T10:00:00.000Z,67.67
2022-12-28T10:03:11.196Z,67.99
2022-12-28T10:06:19.369Z,68.50
2022-12-28T10:09:30.781Z,67.41
2022-12-28T10:12:35.683Z,67.60
2022-12-28T10:15:40.071Z,66.86
2022-12-28T10:18:46.779Z,65.82
2022-12-28T10:22:05.280Z,64.74
2022-12-28T10:25:19.195Z,64.39
2022-12-28T10:28:28.046Z,64.50
2022-12-28T10:31:37.159Z,65.37
2022-12-28T10:34:55.745Z,64.56
2022-12-28T10:38:23.475Z,64.13
2022-12-28T10:41:38.114Z,64.07
2022-12-28T10:44:42.606Z,64.37
2022-12-28T10:47:53.021Z,65.10
2022-12-28T10:51:13.616Z,64.82
2022-12-28T10:54:27.787Z,65.59
2022-12-28T10:57:38.001Z,64.97
2022-12-28T11:00:48.525Z,64.35
2022-12-28T11:03:56.986Z,63.96
2022-12-28T11:07:03.461Z,63.96
2022-12-28T11:10:27.065Z,63.78
2022-12-28T11:13:31.536Z,64.23
2022-12-28T11:16:38.881Z,64.35
2022-12-28T11:19:43.776Z,64.02
2022-12-28T11:22:48.887Z,63.59
2022-12-28T11:25:54.026Z,62.96
2022-12-28T11:28:58.805Z,63.05
2022-12-28T11:32:05.907Z,63.39
2022-12-28T11:35:21.162Z,63.54
2022-12-28T11:38:47.058Z,63.67
2022-12-28T11:42:27.660Z,64.35
2022-12-28T11:45:18.189Z,65.39
2022-12-28T11:48:44.827Z,64.52
2022-12-28T11:51:49.410Z,65.97
2022-12-28T11:54:57.047Z,64.90
2022-12-28T11:58:30.274Z,64.61
2022-12-28T12:01:37.600Z,66.10
2022-12-28T12:04:46.959Z,65.81
2022-12-28T12:07:51.513Z,66.70
2022-12-28T12:11:23.511Z,66.49
2022-12-28T12:14:41.675Z,64.99
2022-12-28T12:18:06.769Z,64.35
2022-12-28T12:21:30.482Z,64.12
2022-12-28T12:24:43.930Z,63.89
2022-12-28T12:28:02.297Z,63.84
2022-12-28T12:31:13.204Z,64.75
2022-12-28T12:34:46.798Z,64.19
2022-12-28T12:38:12.363Z,64.00
2022-12-28T12:41:33.380Z,64.21
2022-12-28T12:44:46.396Z,65.78
2022-12-28T12:48:05.698Z,66.35
2022-12-28T12:51:31.914Z,67.09
2022-12-28T12:54:45.371Z,66.51
2022-12-28T12:58:01.754Z,65.94
2022-12-28T13:01:27.986Z,65.72
2022-12-28T13:04:36.629Z,65.25
2022-12-28T13:07:41.409Z,64.14
2022-12-28T13:10:47.683Z,63.75
2022-12-28T13:13:55.051Z,63.74
2022-12-28T13:17:01.960Z,65.46
2022-12-28T13:20:32.537Z,63.36
2022-12-28T13:23:45.657Z,64.73
2022-12-28T13:26:51.051Z,64.25
2022-12-28T13:29:56.073Z,64.60
2022-12-28T13:33:05.559Z,63.85
2022-12-28T13:36:18.330Z,63.57
2022-12-28T13:39:23.500Z,63.20
2022-12-28T13:42:38.169Z,64.65
2022-12-28T13:45:47.644Z,64.05
2022-12-28T13:48:58.746Z,63.96
2022-12-28T13:52:10.507Z,63.78
2022-12-28T13:55:22.361Z,64.05
2022-12-28T13:58:29.877Z,65.36
2022-12-28T14:01:41.321Z,64.81
2022-12-28T14:04:54.320Z,65.46
2022-12-28T14:08:00.757Z,64.76
2022-12-28T14:11:06.462Z,63.49
2022-12-28T14:14:12.470Z,64.62
2022-12-28T14:17:18.124Z,65.57
2022-12-28T14:20:22.829Z,65.91
2022-12-28T14:23:31.279Z,67.04
2022-12-28T14:26:37.259Z,65.51
2022-12-28T14:29:41.619Z,64.99
2022-12-28T14:32:46.217Z,64.25
2022-12-28T14:35:55.860Z,64.52
2022-12-28T14:39:05.032Z,64.64
2022-12-28T14:42:22.320Z,65.03
2022-12-28T14:46:07.406Z,64.52
2022-12-28T14:49:30.588Z,65.97
2022-12-28T14:52:43.678Z,66.87
2022-12-28T14:56:00.243Z,65.58
2022-12-28T14:59:04.823Z,66.93
2022-12-28T15:02:35.222Z,65.26
2022-12-28T15:05:43.601Z,65.54
2022-12-28T15:08:52.979Z,65.93
2022-12-28T15:12:15.130Z,65.69
2022-12-28T15:15:19.567Z,65.43
2022-12-28T15:18:24.419Z,65.51
2022-12-28T15:21:28.800Z,65.86
2022-12-28T15:24:34.232Z,65.40
2022-12-28T15:27:40.206Z,65.73
2022-12-28T15:30:45.640Z,64.40
2022-12-28T15:33:49.755Z,63.20
2022-12-28T15:36:54.102Z,63.60
2022-12-28T15:39:58.555Z,63.56
2022-12-28T15:43:02.985Z,63.37
2022-12-28T15:46:07.338Z,63.50
2022-12-28T15:49:14.100Z,64.17
2022-12-28T15:52:18.606Z,63.88
2022-12-28T15:55:23.117Z,63.62
2022-12-28T15:58:28.332Z,65.31
2022-12-28T16:01:34.347Z,65.45
2022-12-28T16:04:38.805Z,65.77
2022-12-28T16:07:43.411Z,66.84
2022-12-28T16:10:48.364Z,65.53
2022-12-28T16:14:01.701Z,65.81
2022-12-28T16:17:06.177Z,67.14
2022-12-28T16:20:12.466Z,66.55
2022-12-28T16:23:16.724Z,65.97
2022-12-28T16:26:21.671Z,67.68
2022-12-28T16:29:26.241Z,67.13
2022-12-28T16:32:31.010Z,66.63
2022-12-28T16:35:35.799Z,67.76
2022-12-28T16:38:40.286Z,66.22
2022-12-28T16:41:45.211Z,65.98
2022-12-28T16:44:49.569Z,67.41
2022-12-28T16:47:54.113Z,66.40
2022-12-28T16:51:00.190Z,65.54
2022-12-28T16:54:04.878Z,67.05
2022-12-28T16:57:09.315Z,67.22
2022-12-28T17:00:14.843Z,67.52
2022-12-28T17:03:19.435Z,67.58
2022-12-28T17:06:24.070Z,67.45
2022-12-28T17:09:28.807Z,67.11
2022-12-28T17:12:33.884Z,67.41
2022-12-28T17:15:43.086Z,67.32
2022-12-28T17:18:47.425Z,68.22
2022-12-28T17:21:51.899Z,66.11
2022-12-28T17:24:56.321Z,66.48
2022-12-28T17:28:01.164Z,66.36
2022-12-28T17:31:11.993Z,66.64
2022-12-28T17:34:16.537Z,66.37
2022-12-28T17:37:20.777Z,66.89
2022-12-28T17:40:25.370Z,66.32
2022-12-28T17:43:29.835Z,65.41
2022-12-28T17:46:41.497Z,64.92
2022-12-28T17:49:46.139Z,65.65
2022-12-28T17:52:50.788Z,65.14
2022-12-28T17:55:55.425Z,64.59
2022-12-28T17:59:00.721Z,64.62
2022-12-28T18:02:09.604Z,64.13
2022-12-28T18:05:14.473Z,65.06
2022-12-28T18:08:20.878Z,64.30
2022-12-28T18:11:26.000Z,64.12
2022-12-28T18:14:30.616Z,63.33
2022-12-28T18:17:35.367Z,63.60
2022-12-28T18:20:39.851Z,63.93
2022-12-28T18:23:53.792Z,63.53
2022-12-28T18:26:58.440Z,63.33
2022-12-28T18:30:03.032Z,64.75
2022-12-28T18:33:07.719Z,64.24
2022-12-28T18:36:17.304Z,63.92
2022-12-28T18:39:22.189Z,65.77
2022-12-28T18:42:26.945Z,65.90
2022-12-28T18:45:31.450Z,65.98
2022-12-28T18:48:42.014Z,66.10
2022-12-28T18:51:46.503Z,65.30
2022-12-28T18:54:50.850Z,65.50
2022-12-28T18:57:55.424Z,64.92
2022-12-28T19:01:05.506Z,65.91
2022-12-28T19:04:10.867Z,66.95
2022-12-28T19:07:16.903Z,66.64
2022-12-28T19:10:22.078Z,65.39
2022-12-28T19:13:26.613Z,66.34
2022-12-28T19:16:32.209Z,65.58
2022-12-28T19:19:36.980Z,65.42
2022-12-28T19:22:41.368Z,66.60
2022-12-28T19:25:46.055Z,66.75
2022-12-28T19:28:50.962Z,65.99
2022-12-28T19:31:55.898Z,66.50
2022-12-28T19:35:00.368Z,65.62
2022-12-28T19:38:04.768Z,65.89
2022-12-28T19:41:12.403Z,66.51
2022-12-28T19:44:20.974Z,66.59
2022-12-28T19:47:25.499Z,66.07
2022-12-28T19:50:30.346Z,65.67
2022-12-28T19:53:34.862Z,66.70
2022-12-28T19:56:39.378Z,67.42
2022-12-28T19:59:43.767Z,68.19
2022-12-28T20:02:48.377Z,66.90
2022-12-28T20:05:52.982Z,65.93
2022-12-28T20:09:00.234Z,65.60
2022-12-28T20:12:04.676Z,65.63
2022-12-28T20:15:09.582Z,66.56
2022-12-28T20:18:14.010Z,66.22
2022-12-28T20:21:20.722Z,65.11
2022-12-28T20:24:25.915Z,65.93
2022-12-28T20:27:31.376Z,66.50
2022-12-28T20:30:35.548Z,64.80
2022-12-28T20:33:40.391Z,66.05
2022-12-28T20:36:45.007Z,65.22
2022-12-28T20:39:49.361Z,65.00
2022-12-28T20:43:12.140Z,66.85
2022-12-28T20:46:16.678Z,66.13
2022-12-28T20:49:21.668Z,67.02
2022-12-28T20:52:26.310Z,65.03
2022-12-28T20:55:30.895Z,66.09
2022-12-28T20:58:37.509Z,65.92
2022-12-28T21:01:42.970Z,66.24
2022-12-28T21:04:47.595Z,66.84
2022-12-28T21:07:52.219Z,66.29
2022-12-28T21:10:56.847Z,66.85
2022-12-28T21:14:02.057Z,66.12
2022-12-28T21:17:06.429Z,66.05
2022-12-28T21:20:12.007Z,65.52
2022-12-28T21:23:17.051Z,65.85
2022-12-28T21:26:22.771Z,65.64
2022-12-28T21:29:27.696Z,64.91
2022-12-28T21:32:31.982Z,64.12
2022-12-28T21:35:36.548Z,66.16
2022-12-28T21:38:43.089Z,66.61
2022-12-28T21:41:50.768Z,66.68
2022-12-28T21:44:55.325Z,65.51
2022-12-28T21:47:59.644Z,65.15
2022-12-28T21:51:31.936Z,65.34
2022-12-28T21:54:36.409Z,64.09
2022-12-28T21:57:41.038Z,65.61
2022-12-28T22:01:04.229Z,65.60
2022-12-28T22:04:30.382Z,65.26
2022-12-28T22:07:36.858Z,65.06
2022-12-28T22:10:59.945Z,64.77
2022-12-28T22:14:06.099Z,64.62
2022-12-28T22:17:14.202Z,64.39
2022-12-28T22:20:19.180Z,63.93
2022-12-28T22:23:27.484Z,63.47
2022-12-28T22:26:35.546Z,63.45
2022-12-28T22:29:39.729Z,64.41
2022-12-28T22:32:44.027Z,64.79
2022-12-28T22:35:48.536Z,64.80
2022-12-28T22:38:55.208Z,65.13
2022-12-28T22:41:59.703Z,64.68
2022-12-28T22:45:04.781Z,64.88
2022-12-28T22:48:09.214Z,64.95
2022-12-28T22:51:15.740Z,64.52
2022-12-28T22:54:19.888Z,64.17
2022-12-28T22:57:24.610Z,63.63
2022-12-28T23:00:29.212Z,63.73
2022-12-28T23:03:33.633Z,64.50
2022-12-28T23:06:38.222Z,64.07
2022-12-28T23:09:42.633Z,65.64
2022-12-28T23:12:47.116Z,64.92
2022-12-28T23:16:03.554Z,64.51
2022-12-28T23:19:27.581Z,65.35
2022-12-28T23:22:54.153Z,65.36
2022-12-28T23:26:20.246Z,65.79
2022-12-28T23:29:30.415Z,65.89
2022-12-28T23:32:35.104Z,65.75
2022-12-28T23:35:39.685Z,67.59
2022-12-28T23:38:44.152Z,67.55
2022-12-28T23:41:51.694Z,66.81
2022-12-28T23:44:56.564Z,66.08
2022-12-28T23:48:01.001Z,66.07
2022-12-28T23:51:12.065Z,67.86
2022-12-28T23:54:18.394Z,67.19
2022-12-28T23:57:23.334Z,66.67
